Time;durP1;ratioP1;P1;durP2;ratioP2;P2;SDS_P1;SDS_P2;PMS_P1;PMS_P2;Temp;Humidity;BMP_temperature;BMP_pressure;BME280_temperature;BME280_humidity;BME280_pressure;Samples;Min_cycle;Max_cycle;Signal;HPM_P1;HPM_P2
2022/12/07 00:01:31;;;;;;;;;;;;;;;5.93;100.00;100329.75;5096433;28;19920;-81
2022/12/07 00:04:00;;;;;;;;;;;;;;;5.99;100.00;100332.66;5096269;28;20038;-84
2022/12/07 00:06:26;;;;;;;;;;;;;;;6.03;100.00;100327.97;5077899;28;19977;-82
2022/12/07 00:08:51;;;;;;;;;;;;;;;5.88;100.00;100322.25;5096409;28;19924;-82
2022/12/07 00:11:20;;;;;;;;;;;;;;;5.85;100.00;100324.28;5096326;28;20007;-86
2022/12/07 00:13:46;;;;;;;;;;;;;;;5.96;100.00;100308.44;5096506;28;19982;-79
2022/12/07 00:16:13;;;;;;;;;;;;;;;5.86;100.00;100302.31;5096442;28;19916;-83
2022/12/07 00:18:39;;;;;;;;;;;;;;;5.98;100.00;100309.09;5096045;28;19961;-84
2022/12/07 00:21:10;;;;;;;;;;;;;;;5.71;100.00;100315.00;5096310;28;19920;-85
2022/12/07 00:23:35;;;;;;;;;;;;;;;5.42;100.00;100304.44;5095938;28;20011;-84
2022/12/07 00:26:04;;;;;;;;;;;;;;;5.26;100.00;100288.34;5096048;28;20447;-81
2022/12/07 00:28:30;;;;;;;;;;;;;;;5.22;100.00;100294.84;5095952;28;19920;-86
2022/12/07 00:31:06;;;;;;;;;;;;;;;5.26;100.00;100298.84;5097410;28;19916;-80
2022/12/07 00:33:32;;;;;;;;;;;;;;;5.35;100.00;100292.78;5113240;28;19919;-79
2022/12/07 00:35:58;;;;;;;;;;;;;;;5.50;100.00;100286.19;5100377;28;20337;-82
2022/12/07 00:38:23;;;;;;;;;;;;;;;5.57;100.00;100286.47;5096677;28;20357;-81
2022/12/07 00:41:03;;;;;;;;;;;;;;;5.47;100.00;100291.72;5078979;28;19920;-83
2022/12/07 00:43:28;;;;;;;;;;;;;;;5.56;100.00;100301.44;5101097;28;20361;-83
2022/12/07 00:45:54;;;;;;;;;;;;;;;5.66;100.00;100290.94;5104069;28;19920;-81
2022/12/07 00:48:20;;;;;;;;;;;;;;;5.49;100.00;100284.53;5103168;28;19919;-83
2022/12/07 00:50:48;;;;;;;;;;;;;;;5.59;100.00;100280.13;5104228;28;20231;-83
2022/12/07 00:53:14;;;;;;;;;;;;;;;5.55;100.00;100286.63;5098583;28;19942;-86
2022/12/07 00:55:39;;;;;;;;;;;;;;;5.41;100.00;100281.75;5096360;28;19927;-82
2022/12/07 00:58:07;;;;;;;;;;;;;;;5.36;100.00;100286.59;5096506;28;20392;-82
2022/12/07 01:00:34;;;;;;;;;;;;;;;5.42;100.00;100279.94;5096376;28;20010;-86
2022/12/07 01:03:00;;;;;;;;;;;;;;;5.58;100.00;100278.47;5095865;28;19922;-81
2022/12/07 01:05:27;;;;;;;;;;;;;;;5.74;100.00;100284.00;5096239;28;20348;-81
2022/12/07 01:07:53;;;;;;;;;;;;;;;5.69;100.00;100286.22;5095359;28;19920;-81
2022/12/07 01:10:19;;;;;;;;;;;;;;;5.65;100.00;100284.84;5095776;28;19932;-85
2022/12/07 01:12:44;;;;;;;;;;;;;;;5.85;100.00;100279.59;5095452;28;19920;-84
2022/12/07 01:15:10;;;;;;;;;;;;;;;5.88;100.00;100284.59;5095305;28;20296;-85
2022/12/07 01:17:35;;;;;;;;;;;;;;;5.93;100.00;100288.47;5095104;28;20008;-81
2022/12/07 01:20:01;;;;;;;;;;;;;;;5.97;100.00;100283.75;5095219;28;19927;-84
2022/12/07 01:22:27;;;;;;;;;;;;;;;5.88;100.00;100288.06;5095162;28;19964;-78
2022/12/07 01:24:52;;;;;;;;;;;;;;;5.89;100.00;100291.53;5094891;28;20296;-79
2022/12/07 01:27:17;;;;;;;;;;;;;;;5.82;100.00;100291.22;5094808;28;19973;-82
2022/12/07 01:29:43;;;;;;;;;;;;;;;5.84;100.00;100283.19;5095293;28;19920;-82
2022/12/07 01:32:08;;;;;;;;;;;;;;;5.67;100.00;100282.88;5095102;28;20300;-80
2022/12/07 01:34:34;;;;;;;;;;;;;;;5.62;100.00;100279.03;5094703;28;19928;-85
2022/12/07 01:36:59;;;;;;;;;;;;;;;5.61;100.00;100283.44;5094999;28;20324;-86
2022/12/07 01:39:25;;;;;;;;;;;;;;;5.76;100.00;100290.94;5094949;28;19927;-83
2022/12/07 01:41:50;;;;;;;;;;;;;;;5.59;100.00;100279.28;5076281;28;19916;-80
2022/12/07 01:44:26;;;;;;;;;;;;;;;5.56;100.00;100276.94;5094896;28;19920;-85
2022/12/07 01:47:02;;;;;;;;;;;;;;;5.44;100.00;100284.09;5094659;28;19927;-83
2022/12/07 01:49:33;;;;;;;;;;;;;;;5.78;100.00;100286.34;5094788;28;19924;-82
2022/12/07 01:52:07;;;;;;;;;;;;;;;5.57;100.00;100276.78;5094494;28;19974;-84
2022/12/07 01:54:34;;;;;;;;;;;;;;;5.49;100.00;100279.28;5094983;28;19920;-82
2022/12/07 01:56:59;;;;;;;;;;;;;;;5.41;100.00;100276.47;5094568;28;20426;-81
2022/12/07 01:59:26;;;;;;;;;;;;;;;5.37;100.00;100274.28;5094363;28;19924;-81
2022/12/07 02:01:52;;;;;;;;;;;;;;;5.37;100.00;100269.81;5094312;28;20015;-82
2022/12/07 02:04:18;;;;;;;;;;;;;;;5.37;100.00;100263.78;5094470;28;19927;-82
2022/12/07 02:06:44;;;;;;;;;;;;;;;5.33;100.00;100265.00;5094040;28;19924;-85
2022/12/07 02:09:09;;;;;;;;;;;;;;;5.28;100.00;100260.13;5095064;28;19924;-79
2022/12/07 02:11:35;;;;;;;;;;;;;;;5.58;100.00;100273.19;5108618;28;19951;-83
2022/12/07 02:14:00;;;;;;;;;;;;;;;5.51;100.00;100276.50;5099633;28;19939;-82
2022/12/07 02:16:41;;;;;;;;;;;;;;;5.39;100.00;100273.16;5094175;28;19919;-80
2022/12/07 02:19:12;;;;;;;;;;;;;;;5.49;100.00;100263.50;5093869;28;19920;-84
2022/12/07 02:21:46;;;;;;;;;;;;;;;5.47;100.00;100270.69;5094015;28;19927;-81
2022/12/07 02:24:23;;;;;;;;;;;;;;;5.65;100.00;100271.69;5094116;28;19920;-81
2022/12/07 02:27:16;;;;;;;;;;;;;;;5.58;100.00;100267.09;5093595;28;19959;-79
2022/12/07 02:29:42;;;;;;;;;;;;;;;5.39;100.00;100267.91;5094210;28;19931;-85
2022/12/07 02:32:10;;;;;;;;;;;;;;;5.47;100.00;100262.78;5094290;28;20320;-84
2022/12/07 02:34:51;;;;;;;;;;;;;;;5.57;100.00;100255.75;5075377;28;19962;-82
2022/12/07 02:37:25;;;;;;;;;;;;;;;5.38;100.00;100255.72;5075256;28;19974;-85
2022/12/07 02:39:55;;;;;;;;;;;;;;;5.40;100.00;100253.78;5093397;28;19959;-80
2022/12/07 02:42:27;;;;;;;;;;;;;;;5.39;100.00;100257.41;5093727;28;20384;-79
2022/12/07 02:44:53;;;;;;;;;;;;;;;5.40;100.00;100256.41;5093947;28;20006;-81
2022/12/07 02:47:19;;;;;;;;;;;;;;;5.26;100.00;100251.56;5093921;28;20010;-80
2022/12/07 02:49:46;;;;;;;;;;;;;;;5.16;100.00;100248.09;5093988;28;20426;-83
2022/12/07 02:52:11;;;;;;;;;;;;;;;5.44;100.00;100255.19;5097937;28;20308;-80
2022/12/07 02:54:36;;;;;;;;;;;;;;;5.38;100.00;100253.09;5100520;28;19950;-81
2022/12/07 02:57:20;;;;;;;;;;;;;;;5.39;100.00;100246.06;5097674;28;19959;-82
2022/12/07 02:59:47;;;;;;;;;;;;;;;5.41;100.00;100244.94;5105221;28;19920;-80
2022/12/07 03:02:13;;;;;;;;;;;;;;;5.56;100.00;100242.75;5076990;28;19921;-84
2022/12/07 03:04:56;;;;;;;;;;;;;;;5.24;100.00;100242.97;5081000;28;19916;-80
2022/12/07 03:07:25;;;;;;;;;;;;;;;5.16;100.00;100237.56;5094547;28;19920;-85
2022/12/07 03:09:57;;;;;;;;;;;;;;;5.08;100.00;100237.41;5079960;28;19984;-81
2022/12/07 03:12:28;;;;;;;;;;;;;;;5.19;100.00;100240.78;5075213;28;20318;-82
2022/12/07 03:15:06;;;;;;;;;;;;;;;5.14;100.00;100232.44;5087987;28;19981;-84
2022/12/07 03:17:34;;;;;;;;;;;;;;;5.58;100.00;100236.41;5093447;28;20401;-82
2022/12/07 03:20:01;;;;;;;;;;;;;;;5.63;100.00;100231.53;5093249;28;20019;-84
2022/12/07 03:22:29;;;;;;;;;;;;;;;5.36;100.00;100236.66;5093025;28;19954;-86
2022/12/07 03:24:57;;;;;;;;;;;;;;;5.27;100.00;100226.94;5093063;28;19920;-82
2022/12/07 03:27:25;;;;;;;;;;;;;;;5.26;100.00;100220.03;5093223;28;19916;-85
2022/12/07 03:30:12;;;;;;;;;;;;;;;5.30;100.00;100221.44;5092823;28;19943;-84
2022/12/07 03:32:41;;;;;;;;;;;;;;;5.26;100.00;100224.47;5096493;28;20312;-85
2022/12/07 03:35:22;;;;;;;;;;;;;;;5.53;100.00;100228.09;5096770;28;19927;-84
2022/12/07 03:37:56;;;;;;;;;;;;;;;5.42;100.00;100225.59;5096650;28;19926;-85
2022/12/07 03:40:25;;;;;;;;;;;;;;;5.31;100.00;100224.88;5096995;28;19920;-84
2022/12/07 03:42:51;;;;;;;;;;;;;;;5.22;100.00;100223.91;5096752;28;20288;-84
2022/12/07 03:45:17;;;;;;;;;;;;;;;5.04;100.00;100217.63;5096771;28;19927;-83
2022/12/07 03:48:05;;;;;;;;;;;;;;;4.97;100.00;100219.16;5096974;28;19916;-84
2022/12/07 03:50:35;;;;;;;;;;;;;;;4.81;100.00;100218.78;5100163;28;19920;-77
2022/12/07 03:53:15;;;;;;;;;;;;;;;4.89;100.00;100216.34;5097258;28;19920;-84
2022/12/07 03:55:42;;;;;;;;;;;;;;;4.80;100.00;100217.16;5096395;28;19927;-81
2022/12/07 03:58:10;;;;;;;;;;;;;;;4.89;100.00;100222.44;5096477;28;19920;-79
2022/12/07 04:00:35;;;;;;;;;;;;;;;5.03;100.00;100218.59;5096630;28;19953;-82
2022/12/07 04:03:01;;;;;;;;;;;;;;;5.02;100.00;100214.31;5096401;28;19966;-80
2022/12/07 04:05:26;;;;;;;;;;;;;;;5.18;100.00;100223.34;5078041;28;20400;-83
2022/12/07 04:07:51;;;;;;;;;;;;;;;5.18;100.00;100219.88;5096465;28;19920;-83
2022/12/07 04:10:17;;;;;;;;;;;;;;;5.25;100.00;100231.50;5078383;28;20001;-84
2022/12/07 04:12:42;;;;;;;;;;;;;;;5.07;100.00;100220.00;5096372;28;20489;-83
2022/12/07 04:15:08;;;;;;;;;;;;;;;4.88;100.00;100209.41;5097206;28;19920;-81
2022/12/07 04:17:33;;;;;;;;;;;;;;;4.63;100.00;100211.56;5096433;28;19945;-80
2022/12/07 04:19:59;;;;;;;;;;;;;;;4.52;100.00;100209.00;5096717;28;20388;-82
2022/12/07 04:22:24;;;;;;;;;;;;;;;4.47;100.00;100211.22;5097101;28;19920;-82
2022/12/07 04:24:49;;;;;;;;;;;;;;;4.40;100.00;100204.81;5091231;28;19970;-78
2022/12/07 04:27:15;;;;;;;;;;;;;;;4.27;100.00;100212.06;5075757;28;20289;-77
2022/12/07 04:29:41;;;;;;;;;;;;;;;4.47;100.00;100205.97;5076083;28;20019;-77
2022/12/07 04:32:06;;;;;;;;;;;;;;;4.39;100.00;100204.94;5075754;28;19921;-83
2022/12/07 04:34:31;;;;;;;;;;;;;;;4.33;100.00;100208.94;5075649;28;20339;-79
2022/12/07 04:36:57;;;;;;;;;;;;;;;4.27;100.00;100213.84;5075788;28;19921;-78
2022/12/07 04:39:24;;;;;;;;;;;;;;;4.26;100.00;100213.03;5075493;28;19939;-81
2022/12/07 04:41:49;;;;;;;;;;;;;;;3.97;100.00;100215.47;5075666;28;19921;-87
2022/12/07 04:44:15;;;;;;;;;;;;;;;3.98;100.00;100214.50;5056808;28;19927;-82
2022/12/07 04:46:41;;;;;;;;;;;;;;;4.06;100.00;100211.25;5075674;28;19920;-81
2022/12/07 04:49:07;;;;;;;;;;;;;;;4.25;100.00;100213.13;5075510;28;19921;-83
2022/12/07 04:51:32;;;;;;;;;;;;;;;4.30;100.00;100219.69;5075501;28;19921;-84
2022/12/07 04:53:58;;;;;;;;;;;;;;;4.44;100.00;100206.19;5057250;28;19920;-83
2022/12/07 04:56:24;;;;;;;;;;;;;;;4.58;100.00;100208.47;5075181;28;19928;-83
2022/12/07 04:58:51;;;;;;;;;;;;;;;4.24;100.00;100209.72;5075154;28;19920;-81
2022/12/07 05:01:16;;;;;;;;;;;;;;;4.07;100.00;100205.88;5075341;28;19920;-86
2022/12/07 05:03:42;;;;;;;;;;;;;;;4.07;100.00;100203.25;5075132;28;19943;-84
2022/12/07 05:06:07;;;;;;;;;;;;;;;4.14;100.00;100207.00;5074684;28;19929;-83
2022/12/07 05:08:33;;;;;;;;;;;;;;;4.03;100.00;100203.63;5074959;28;19920;-85
2022/12/07 05:10:59;;;;;;;;;;;;;;;4.21;100.00;100202.06;5074520;28;19946;-81
2022/12/07 05:13:24;;;;;;;;;;;;;;;4.07;100.00;100200.63;5074776;28;19927;-85
2022/12/07 05:15:50;;;;;;;;;;;;;;;3.88;100.00;100199.69;5056840;28;20012;-80
2022/12/07 05:18:15;;;;;;;;;;;;;;;3.83;100.00;100197.44;5074447;28;19912;-85
2022/12/07 05:20:41;;;;;;;;;;;;;;;3.81;100.00;100193.28;5074759;28;19920;-84
2022/12/07 05:23:07;;;;;;;;;;;;;;;3.77;100.00;100199.72;5075074;28;20300;-80
2022/12/07 05:25:33;;;;;;;;;;;;;;;3.98;100.00;100195.31;5081764;28;19920;-80
2022/12/07 05:27:58;;;;;;;;;;;;;;;3.90;100.00;100200.38;5075305;28;19916;-80
2022/12/07 05:30:24;;;;;;;;;;;;;;;3.87;100.00;100198.84;5079386;28;20369;-82
2022/12/07 05:32:50;;;;;;;;;;;;;;;3.96;100.00;100205.09;5074637;28;20038;-83
2022/12/07 05:35:16;;;;;;;;;;;;;;;3.84;100.00;100203.50;5078771;28;19924;-82
2022/12/07 05:37:41;;;;;;;;;;;;;;;3.65;100.00;100202.38;5076493;28;19928;-83
2022/12/07 05:40:07;;;;;;;;;;;;;;;3.63;100.00;100196.44;5077802;28;20015;-81
2022/12/07 05:42:32;;;;;;;;;;;;;;;3.48;100.00;100195.06;5078892;28;19921;-81
2022/12/07 05:44:57;;;;;;;;;;;;;;;3.59;100.00;100199.44;5075493;28;19967;-83
2022/12/07 05:47:23;;;;;;;;;;;;;;;3.49;100.00;100201.16;5077133;28;19928;-84
2022/12/07 05:49:48;;;;;;;;;;;;;;;3.51;100.00;100204.50;5073901;28;19935;-83
2022/12/07 05:52:14;;;;;;;;;;;;;;;3.54;100.00;100202.47;5081008;28;20599;-83
2022/12/07 05:54:39;;;;;;;;;;;;;;;3.57;100.00;100204.81;5092932;28;19927;-84
2022/12/07 05:57:05;;;;;;;;;;;;;;;3.57;100.00;100204.81;5092448;28;20461;-83
2022/12/07 05:59:30;;;;;;;;;;;;;;;3.52;100.00;100208.75;5078877;28;19920;-82
2022/12/07 06:02:00;;;;;;;;;;;;;;;3.64;100.00;100213.00;5073089;28;20039;-79
2022/12/07 06:04:27;;;;;;;;;;;;;;;3.56;100.00;100213.63;5076086;28;19927;-82
2022/12/07 06:06:53;;;;;;;;;;;;;;;3.49;100.00;100212.47;5079053;28;19928;-83
2022/12/07 06:09:19;;;;;;;;;;;;;;;3.56;100.00;100210.16;5082365;28;19921;-86
2022/12/07 06:14:28;;;;;;;;;;;;;;;3.48;100.00;100210.78;5082235;28;19920;-86
2022/12/07 06:16:54;;;;;;;;;;;;;;;3.55;100.00;100214.56;5076033;28;19921;-82
2022/12/07 06:19:19;;;;;;;;;;;;;;;3.54;100.00;100220.78;5075341;28;19943;-87
2022/12/07 06:21:45;;;;;;;;;;;;;;;3.49;100.00;100211.63;5056284;28;19920;-81
2022/12/07 06:24:14;;;;;;;;;;;;;;;3.59;100.00;100217.78;5079449;28;20045;-80
2022/12/07 06:26:40;;;;;;;;;;;;;;;3.54;100.00;100212.94;5081564;28;19971;-82
2022/12/07 06:29:05;;;;;;;;;;;;;;;3.63;100.00;100208.72;5080765;28;19959;-83
2022/12/07 06:31:31;;;;;;;;;;;;;;;3.76;100.00;100224.25;5086598;28;19916;-82
2022/12/07 06:34:00;;;;;;;;;;;;;;;3.85;100.00;100223.50;5081222;28;20416;-82
2022/12/07 06:36:25;;;;;;;;;;;;;;;3.94;100.00;100218.34;5082622;28;19920;-80
2022/12/07 06:38:51;;;;;;;;;;;;;;;3.92;100.00;100219.41;5082985;28;19932;-86
2022/12/07 06:41:16;;;;;;;;;;;;;;;3.75;100.00;100222.59;5081552;28;19920;-86
2022/12/07 06:43:44;;;;;;;;;;;;;;;3.84;100.00;100233.19;5084823;28;19909;-86
2022/12/07 06:46:09;;;;;;;;;;;;;;;3.81;100.00;100243.09;5064916;28;20300;-82
2022/12/07 06:48:35;;;;;;;;;;;;;;;3.54;100.00;100236.50;5080740;28;19920;-86
2022/12/07 06:51:00;;;;;;;;;;;;;;;3.52;100.00;100248.88;5082561;28;20015;-87
2022/12/07 06:53:26;;;;;;;;;;;;;;;3.40;100.00;100249.03;5081856;28;19927;-87
2022/12/07 06:55:51;;;;;;;;;;;;;;;3.50;100.00;100250.81;5082448;28;19924;-86
2022/12/07 06:58:17;;;;;;;;;;;;;;;3.48;100.00;100236.97;5081180;28;19927;-86
2022/12/07 07:00:43;;;;;;;;;;;;;;;3.35;100.00;100244.16;5084181;28;20369;-84
2022/12/07 07:03:08;;;;;;;;;;;;;;;3.45;100.00;100241.63;5089817;28;19920;-86
2022/12/07 07:05:34;;;;;;;;;;;;;;;3.52;100.00;100243.66;5089175;28;19925;-82
2022/12/07 07:07:59;;;;;;;;;;;;;;;3.27;100.00;100238.72;5069889;28;20011;-81
2022/12/07 07:10:24;;;;;;;;;;;;;;;3.55;100.00;100238.16;5080107;28;19927;-86
2022/12/07 07:12:50;;;;;;;;;;;;;;;3.36;100.00;100240.59;5086648;28;19959;-82
2022/12/07 07:15:15;;;;;;;;;;;;;;;3.20;100.00;100234.09;5079952;28;20033;-84
2022/12/07 07:17:40;;;;;;;;;;;;;;;3.15;100.00;100226.59;5078890;28;19924;-89
2022/12/07 07:20:06;;;;;;;;;;;;;;;3.03;100.00;100230.19;5078456;28;20365;-85
2022/12/07 07:22:31;;;;;;;;;;;;;;;3.11;100.00;100235.66;5078622;28;20290;-87
2022/12/07 07:24:57;;;;;;;;;;;;;;;3.07;100.00;100248.16;5060082;28;20000;-84
2022/12/07 07:27:22;;;;;;;;;;;;;;;3.40;100.00;100252.50;5077873;28;20005;-84
2022/12/07 07:29:48;;;;;;;;;;;;;;;3.20;100.00;100247.19;5079143;28;19920;-83
2022/12/07 07:32:13;;;;;;;;;;;;;;;3.10;100.00;100244.47;5077945;28;19921;-85
2022/12/07 07:34:39;;;;;;;;;;;;;;;3.14;100.00;100251.13;5081170;28;19920;-82
2022/12/07 07:37:04;;;;;;;;;;;;;;;3.03;100.00;100256.38;5077640;28;19921;-82
2022/12/07 07:39:30;;;;;;;;;;;;;;;3.00;100.00;100257.44;5060079;28;19928;-83
2022/12/07 07:41:55;;;;;;;;;;;;;;;3.02;100.00;100252.91;5079225;28;19920;-88
2022/12/07 07:44:25;;;;;;;;;;;;;;;3.03;100.00;100265.06;5044628;28;19932;-80
2022/12/07 07:46:50;;;;;;;;;;;;;;;3.19;100.00;100271.69;5081640;28;19917;-85
2022/12/07 07:49:15;;;;;;;;;;;;;;;3.12;100.00;100266.09;5080737;28;19921;-83
2022/12/07 07:51:41;;;;;;;;;;;;;;;2.98;100.00;100269.81;5063125;28;19956;-84
2022/12/07 07:54:06;;;;;;;;;;;;;;;3.07;100.00;100273.50;5080539;28;19920;-84
2022/12/07 07:56:31;;;;;;;;;;;;;;;3.00;100.00;100281.00;5079520;28;19921;-84
2022/12/07 07:58:57;;;;;;;;;;;;;;;2.93;100.00;100282.44;5080142;28;19916;-82
2022/12/07 08:01:22;;;;;;;;;;;;;;;3.00;100.00;100282.78;5078273;28;19924;-88
2022/12/07 08:03:47;;;;;;;;;;;;;;;2.89;100.00;100280.16;5078621;28;19927;-85
2022/12/07 08:06:13;;;;;;;;;;;;;;;3.05;100.00;100284.09;5078207;28;20000;-88
2022/12/07 08:08:38;;;;;;;;;;;;;;;3.01;100.00;100279.22;5061425;28;19927;-82
2022/12/07 08:11:07;;;;;;;;;;;;;;;3.15;100.00;100273.72;5080790;28;20023;-87
2022/12/07 08:13:33;;;;;;;;;;;;;;;3.25;100.00;100282.53;5082717;28;19927;-81
2022/12/07 08:16:02;;;;;;;;;;;;;;;3.38;100.00;100283.22;5080603;28;20431;-84
2022/12/07 08:18:28;;;;;;;;;;;;;;;3.22;100.00;100281.94;5077819;28;20510;-85
2022/12/07 08:20:58;;;;;;;;;;;;;;;3.23;100.00;100287.06;5078274;28;19926;-82
2022/12/07 08:23:23;;;;;;;;;;;;;;;3.14;100.00;100293.03;5078583;28;19923;-85
2022/12/07 08:25:49;;;;;;;;;;;;;;;3.16;100.00;100298.97;5077328;28;20033;-86
2022/12/07 08:28:15;;;;;;;;;;;;;;;3.00;100.00;100294.09;5081361;28;19958;-84
2022/12/07 08:30:40;;;;;;;;;;;;;;;3.08;100.00;100298.75;5106697;28;19962;-81
2022/12/07 08:33:05;;;;;;;;;;;;;;;3.18;100.00;100307.56;5091819;28;20267;-88
2022/12/07 08:35:32;;;;;;;;;;;;;;;3.19;100.00;100303.94;5080746;28;19940;-85
2022/12/07 08:37:57;;;;;;;;;;;;;;;3.13;100.00;100301.81;5065546;28;19920;-84
2022/12/07 08:40:23;;;;;;;;;;;;;;;3.26;100.00;100299.06;5083039;28;19943;-88
2022/12/07 08:42:49;;;;;;;;;;;;;;;3.35;100.00;100307.03;5081096;28;20019;-83
2022/12/07 08:45:15;;;;;;;;;;;;;;;3.46;100.00;100298.31;5093984;28;19900;-82
2022/12/07 08:47:43;;;;;;;;;;;;;;;3.47;100.00;100308.69;5082667;28;20396;-86
2022/12/07 08:50:09;;;;;;;;;;;;;;;3.56;100.00;100310.56;5078825;28;19924;-83
2022/12/07 08:52:35;;;;;;;;;;;;;;;3.27;100.00;100300.75;5079098;28;19920;-85
2022/12/07 08:55:01;;;;;;;;;;;;;;;3.26;100.00;100310.38;5087701;28;19996;-80
2022/12/07 08:57:27;;;;;;;;;;;;;;;3.28;100.00;100310.28;5079319;28;19927;-86
2022/12/07 08:59:53;;;;;;;;;;;;;;;3.23;100.00;100308.00;5077167;28;19990;-86
2022/12/07 09:02:19;;;;;;;;;;;;;;;3.17;100.00;100313.72;5077515;28;19921;-83
2022/12/07 09:04:47;;;;;;;;;;;;;;;3.20;100.00;100310.88;5077342;28;19916;-87
2022/12/07 09:07:12;;;;;;;;;;;;;;;3.31;100.00;100313.47;5076087;28;19928;-87
2022/12/07 09:09:38;;;;;;;;;;;;;;;3.24;100.00;100314.09;5076997;28;19924;-87
2022/12/07 09:12:03;;;;;;;;;;;;;;;3.15;100.00;100317.44;5076508;28;20296;-88
2022/12/07 09:14:29;;;;;;;;;;;;;;;3.22;100.00;100308.09;5076361;28;20372;-85
2022/12/07 09:16:54;;;;;;;;;;;;;;;3.19;100.00;100318.81;5076326;28;19912;-86
2022/12/07 09:19:19;;;;;;;;;;;;;;;3.22;100.00;100314.19;5076592;28;19925;-87
2022/12/07 09:21:45;;;;;;;;;;;;;;;3.35;100.00;100322.75;5076594;28;19920;-88
2022/12/07 09:24:11;;;;;;;;;;;;;;;3.20;100.00;100321.34;5077753;28;19939;-88
2022/12/07 09:26:39;;;;;;;;;;;;;;;3.27;100.00;100312.06;5075826;28;20423;-83
2022/12/07 09:29:04;;;;;;;;;;;;;;;3.22;100.00;100313.34;5075360;28;19921;-77
2022/12/07 09:31:30;;;;;;;;;;;;;;;3.32;100.00;100309.88;5076610;28;20396;-90
2022/12/07 09:33:59;;;;;;;;;;;;;;;3.68;100.00;100316.59;5076872;28;20357;-88
2022/12/07 09:36:25;;;;;;;;;;;;;;;3.90;100.00;100324.41;5058980;28;19920;-89
2022/12/07 09:38:50;;;;;;;;;;;;;;;3.67;100.00;100321.97;5077261;28;19924;-85
2022/12/07 09:41:16;;;;;;;;;;;;;;;3.64;100.00;100318.66;5077090;28;20382;-85
2022/12/07 09:43:42;;;;;;;;;;;;;;;3.80;100.00;100320.03;5077072;28;19940;-85
2022/12/07 09:46:11;;;;;;;;;;;;;;;3.93;100.00;100323.31;5076955;28;20004;-83
2022/12/07 09:48:38;;;;;;;;;;;;;;;4.06;100.00;100319.59;5077437;28;19956;-86
2022/12/07 09:51:14;;;;;;;;;;;;;;;3.82;100.00;100313.72;5077072;28;20009;-87
2022/12/07 09:53:39;;;;;;;;;;;;;;;3.82;100.00;100312.88;5076081;28;19959;-85
2022/12/07 09:56:05;;;;;;;;;;;;;;;3.88;100.00;100317.66;5075913;28;20400;-85
2022/12/07 09:58:31;;;;;;;;;;;;;;;4.09;100.00;100310.63;5076675;28;20370;-85
2022/12/07 10:00:58;;;;;;;;;;;;;;;4.37;100.00;100312.66;5076514;28;19921;-88
2022/12/07 10:03:26;;;;;;;;;;;;;;;4.50;100.00;100315.06;5077098;28;19930;-82
2022/12/07 10:05:52;;;;;;;;;;;;;;;4.42;100.00;100310.47;5084639;28;19928;-83
2022/12/07 10:08:17;;;;;;;;;;;;;;;4.31;100.00;100312.34;5076683;28;19920;-84
2022/12/07 10:10:44;;;;;;;;;;;;;;;4.21;100.00;100308.81;5075914;28;20399;-89
2022/12/07 10:13:20;;;;;;;;;;;;;;;4.16;100.00;100309.16;5058395;28;19930;-80
2022/12/07 10:15:58;;;;;;;;;;;;;;;4.20;100.00;100305.34;5075671;28;19920;-88
2022/12/07 10:18:26;;;;;;;;;;;;;;;4.34;100.00;100301.56;5076158;28;19981;-83
2022/12/07 10:21:00;;;;;;;;;;;;;;;4.45;100.00;100302.31;5077141;28;20381;-88
2022/12/07 10:23:25;;;;;;;;;;;;;;;4.49;100.00;100298.50;5079067;28;19920;-83
2022/12/07 10:25:54;;;;;;;;;;;;;;;4.41;100.00;100295.66;5093070;28;19930;-81
2022/12/07 10:28:20;;;;;;;;;;;;;;;4.31;100.00;100294.78;5077828;28;19920;-82
2022/12/07 10:30:56;;;;;;;;;;;;;;;4.22;100.00;100295.53;5076211;28;20011;-87
2022/12/07 10:33:36;;;;;;;;;;;;;;;4.31;100.00;100281.66;5076398;28;19921;-84
2022/12/07 10:36:16;;;;;;;;;;;;;;;4.25;100.00;100279.56;5058145;28;20377;-80
2022/12/07 10:38:44;;;;;;;;;;;;;;;4.21;100.00;100275.50;5075449;28;19978;-83
2022/12/07 10:41:09;;;;;;;;;;;;;;;4.28;100.00;100274.03;5057318;28;19924;-87
2022/12/07 10:43:35;;;;;;;;;;;;;;;4.65;100.00;100261.28;5075317;28;19920;-83
2022/12/07 10:46:20;;;;;;;;;;;;;;;4.62;100.00;100267.63;5075221;28;20015;-85
2022/12/07 10:48:56;;;;;;;;;;;;;;;4.36;100.00;100266.38;5077208;28;19920;-84
2022/12/07 10:51:30;;;;;;;;;;;;;;;4.38;100.00;100264.44;5078645;28;20288;-81
2022/12/07 10:54:11;;;;;;;;;;;;;;;4.36;100.00;100261.13;5085514;28;20011;-82
2022/12/07 10:56:59;;;;;;;;;;;;;;;4.17;100.00;100250.53;5079986;28;19924;-84
2022/12/07 10:59:36;;;;;;;;;;;;;;;4.19;100.00;100240.72;5075946;28;19921;-83
2022/12/07 11:02:14;;;;;;;;;;;;;;;4.40;100.00;100244.19;5076637;28;20015;-82
2022/12/07 11:05:08;;;;;;;;;;;;;;;4.36;100.00;100242.75;5077041;28;19920;-86
2022/12/07 11:07:47;;;;;;;;;;;;;;;4.47;100.00;100241.88;5086030;28;19924;-78
2022/12/07 11:10:19;;;;;;;;;;;;;;;4.59;100.00;100236.41;5078848;28;19928;-80
2022/12/07 11:12:50;;;;;;;;;;;;;;;4.55;100.00;100229.75;5097900;28;19957;-81
2022/12/07 11:15:27;;;;;;;;;;;;;;;4.27;100.00;100235.69;5079993;28;20015;-78
2022/12/07 11:17:59;;;;;;;;;;;;;;;4.34;100.00;100230.75;5077719;28;19920;-82
2022/12/07 11:20:36;;;;;;;;;;;;;;;4.48;100.00;100228.59;5075494;28;20393;-83
2022/12/07 11:23:05;;;;;;;;;;;;;;;4.57;100.00;100230.44;5056910;28;19920;-82
2022/12/07 11:25:31;;;;;;;;;;;;;;;4.50;100.00;100226.69;5075832;28;20292;-88
2022/12/07 11:28:12;;;;;;;;;;;;;;;4.40;100.00;100220.56;5075587;28;19935;-81
2022/12/07 11:30:40;;;;;;;;;;;;;;;4.35;100.00;100227.97;5082522;28;19959;-79
2022/12/07 11:33:15;;;;;;;;;;;;;;;4.39;100.00;100213.66;5082502;28;19921;-81
2022/12/07 11:35:50;;;;;;;;;;;;;;;4.49;100.00;100211.06;5082065;28;19950;-82
2022/12/07 11:38:17;;;;;;;;;;;;;;;4.52;100.00;100213.44;5086032;28;19924;-83
2022/12/07 11:40:48;;;;;;;;;;;;;;;4.52;100.00;100211.63;5082050;28;19920;-85
2022/12/07 11:43:27;;;;;;;;;;;;;;;4.78;100.00;100221.69;5063001;28;19928;-88
2022/12/07 11:45:59;;;;;;;;;;;;;;;4.75;100.00;100216.69;5086147;28;19988;-85
2022/12/07 11:48:34;;;;;;;;;;;;;;;4.76;100.00;100210.50;5085747;28;19920;-88
2022/12/07 11:51:01;;;;;;;;;;;;;;;4.87;100.00;100205.97;5087560;28;19924;-83
2022/12/07 11:53:35;;;;;;;;;;;;;;;4.87;100.00;100202.53;5088027;28;19920;-81
2022/12/07 11:56:12;;;;;;;;;;;;;;;4.72;100.00;100201.22;5081830;28;19920;-86
2022/12/07 11:58:37;;;;;;;;;;;;;;;4.69;100.00;100200.53;5074389;28;19967;-84
2022/12/07 12:01:22;;;;;;;;;;;;;;;4.75;100.00;100203.56;5081494;28;19920;-84
2022/12/07 12:03:50;;;;;;;;;;;;;;;4.35;100.00;100191.25;5085982;28;20389;-84
2022/12/07 12:06:15;;;;;;;;;;;;;;;4.52;100.00;100187.19;5097114;28;19954;-84
2022/12/07 12:08:48;;;;;;;;;;;;;;;4.57;100.00;100183.19;5109426;28;19924;-84
2022/12/07 12:11:42;;;;;;;;;;;;;;;4.42;100.00;100189.78;5098053;28;19965;-87
2022/12/07 12:14:13;;;;;;;;;;;;;;;4.46;100.00;100183.31;5081541;28;20331;-85
2022/12/07 12:16:50;;;;;;;;;;;;;;;4.55;100.00;100187.75;5080696;28;19931;-85
2022/12/07 12:19:34;;;;;;;;;;;;;;;4.51;100.00;100182.88;5078570;28;20401;-85
2022/12/07 12:22:12;;;;;;;;;;;;;;;4.57;100.00;100180.56;5085760;28;20050;-86
2022/12/07 12:24:39;;;;;;;;;;;;;;;4.62;100.00;100178.41;5087232;28;19916;-88
2022/12/07 12:27:15;;;;;;;;;;;;;;;4.64;100.00;100168.59;5086312;28;19928;-81
2022/12/07 12:29:41;;;;;;;;;;;;;;;4.68;100.00;100161.28;5091078;28;19927;-84
2022/12/07 12:34:48;;;;;;;;;;;;;;;4.50;100.00;100162.88;4380028;26;19952;-83
2022/12/07 12:37:33;;;;;;;;;;;;;;;4.47;100.00;100171.84;5022351;28;19929;-84
2022/12/07 12:40:17;;;;;;;;;;;;;;;4.30;100.00;100164.59;5003952;28;19921;-82
2022/12/07 12:42:46;;;;;;;;;;;;;;;4.50;100.00;100168.97;5044499;28;20016;-85
2022/12/07 12:45:21;;;;;;;;;;;;;;;4.28;100.00;100161.25;5046116;28;19921;-84
2022/12/07 12:47:57;;;;;;;;;;;;;;;4.41;100.00;100164.50;5025763;28;19925;-85